createdAt,value
2023-04-03T00:01:40.106Z,1.45
2023-04-03T00:04:07.284Z,1.10
2023-04-03T00:06:34.683Z,1.10
2023-04-03T00:09:01.750Z,1.02
2023-04-03T00:11:28.902Z,1.55
2023-04-03T00:13:55.984Z,1.45
2023-04-03T00:16:23.111Z,1.52
2023-04-03T00:18:50.191Z,1.08
2023-04-03T00:21:17.320Z,2.08
2023-04-03T00:23:44.394Z,2.25
2023-04-03T00:26:11.492Z,1.75
2023-04-03T00:28:38.590Z,1.60
2023-04-03T00:31:05.811Z,1.42
2023-04-03T00:33:32.909Z,1.30
2023-04-03T00:36:00.197Z,1.05
2023-04-03T00:38:27.448Z,1.10
2023-04-03T00:40:54.515Z,1.90
2023-04-03T00:43:25.333Z,1.08
2023-04-03T00:45:53.076Z,1.15
2023-04-03T00:48:21.905Z,1.67
2023-04-03T00:50:49.007Z,1.58
2023-04-03T00:53:18.449Z,1.00
2023-04-03T00:55:45.832Z,1.20
2023-04-03T00:58:12.908Z,1.40
2023-04-03T01:00:40.529Z,1.40
2023-04-03T01:03:07.587Z,1.30
2023-04-03T01:05:34.747Z,1.02
2023-04-03T01:08:01.804Z,1.35
2023-04-03T01:10:28.942Z,1.60
2023-04-03T01:12:56.038Z,1.60
2023-04-03T01:15:27.244Z,1.92
2023-04-03T01:18:05.606Z,1.95
2023-04-03T01:20:32.910Z,2.10
2023-04-03T01:23:03.095Z,1.50
2023-04-03T01:25:30.265Z,1.20
2023-04-03T01:27:57.313Z,1.13
2023-04-03T01:30:26.061Z,1.20
2023-04-03T01:32:53.230Z,1.03
2023-04-03T01:35:20.323Z,1.70
2023-04-03T01:37:47.372Z,1.10
2023-04-03T01:40:14.536Z,1.23
2023-04-03T01:42:41.594Z,1.30
2023-04-03T01:45:08.937Z,1.42
2023-04-03T01:47:36.036Z,2.03
2023-04-03T01:50:03.268Z,2.50
2023-04-03T01:52:31.084Z,2.55
2023-04-03T01:54:58.169Z,2.42
2023-04-03T01:57:25.315Z,2.45
2023-04-03T01:59:52.459Z,2.13
2023-04-03T02:02:21.151Z,1.60
2023-04-03T02:04:48.229Z,1.58
2023-04-03T02:07:15.423Z,1.58
2023-04-03T02:09:42.472Z,1.55
2023-04-03T02:12:09.549Z,1.75
2023-04-03T02:14:36.674Z,1.40
2023-04-03T02:17:06.114Z,1.20
2023-04-03T02:19:33.242Z,1.30
2023-04-03T02:22:00.345Z,1.30
2023-04-03T02:24:27.406Z,1.13
2023-04-03T02:26:54.669Z,1.25
2023-04-03T02:29:21.768Z,1.00
2023-04-03T02:31:48.886Z,1.50
2023-04-03T02:34:15.935Z,1.00
2023-04-03T02:36:43.030Z,1.13
2023-04-03T02:39:10.250Z,1.40
2023-04-03T02:41:37.376Z,1.10
2023-04-03T02:44:04.723Z,1.08
2023-04-03T02:46:31.954Z,1.25
2023-04-03T02:48:59.096Z,1.63
2023-04-03T02:51:26.240Z,2.10
2023-04-03T02:53:53.317Z,1.75
2023-04-03T02:56:21.186Z,1.67
2023-04-03T02:58:48.325Z,1.40
2023-04-03T03:01:15.555Z,1.10
2023-04-03T03:03:42.678Z,1.17
2023-04-03T03:06:10.571Z,0.98
2023-04-03T03:08:37.791Z,1.83
2023-04-03T03:11:05.277Z,1.30
2023-04-03T03:13:32.554Z,1.10
2023-04-03T03:16:02.846Z,1.10
2023-04-03T03:18:30.023Z,1.10
2023-04-03T03:20:57.549Z,1.08
2023-04-03T03:23:24.964Z,0.82
2023-04-03T03:25:55.668Z,1.20
2023-04-03T03:28:22.803Z,2.80
2023-04-03T03:30:50.157Z,2.45
2023-04-03T03:33:18.154Z,2.00
2023-04-03T03:35:45.339Z,1.20
2023-04-03T03:38:12.612Z,1.47
2023-04-03T03:40:39.705Z,1.05
2023-04-03T03:43:07.182Z,1.47
2023-04-03T03:46:01.001Z,1.05
2023-04-03T03:48:28.046Z,1.30
2023-04-03T03:50:55.135Z,1.75
2023-04-03T03:53:22.245Z,1.30
2023-04-03T03:55:49.347Z,1.27
2023-04-03T03:58:16.490Z,1.10
2023-04-03T04:00:43.553Z,1.80
2023-04-03T04:03:10.776Z,1.30
2023-04-03T04:05:38.233Z,1.08
2023-04-03T04:08:05.564Z,1.23
2023-04-03T04:10:32.618Z,1.30
2023-04-03T04:12:59.686Z,1.25
2023-04-03T04:15:27.918Z,1.00
2023-04-03T04:17:55.302Z,1.23
2023-04-03T04:20:22.437Z,1.02
2023-04-03T04:22:49.494Z,1.00
2023-04-03T04:25:16.643Z,1.60
2023-04-03T04:27:43.802Z,1.30
2023-04-03T04:30:11.105Z,1.48
2023-04-03T04:32:38.234Z,1.27
2023-04-03T04:35:05.928Z,1.63
2023-04-03T04:37:33.155Z,1.20
2023-04-03T04:40:00.497Z,1.60
2023-04-03T04:42:27.589Z,1.70
2023-04-03T04:44:54.640Z,1.63
2023-04-03T04:47:21.720Z,1.40
2023-04-03T04:49:48.791Z,1.50
2023-04-03T04:52:16.021Z,1.90
2023-04-03T04:54:43.161Z,1.73
2023-04-03T04:57:11.466Z,1.60
2023-04-03T04:59:38.547Z,1.63
2023-04-03T05:02:05.737Z,1.43
2023-04-03T05:04:33.123Z,1.50
2023-04-03T05:07:00.630Z,1.60
2023-04-03T05:09:27.784Z,1.60
2023-04-03T05:11:55.187Z,1.45
2023-04-03T05:14:22.243Z,1.67
2023-04-03T05:16:50.879Z,1.88
2023-04-03T05:19:19.271Z,1.70
2023-04-03T05:21:46.455Z,1.25
2023-04-03T05:24:13.558Z,1.90
2023-04-03T05:26:41.239Z,1.85
2023-04-03T05:29:08.323Z,2.20
2023-04-03T05:31:35.626Z,2.25
2023-04-03T05:34:02.751Z,1.90
2023-04-03T05:36:29.821Z,2.00
2023-04-03T05:38:57.648Z,1.60
2023-04-03T05:41:24.935Z,2.53
2023-04-03T05:43:52.050Z,1.50
2023-04-03T05:46:19.695Z,1.98
2023-04-03T05:48:46.874Z,2.08
2023-04-03T05:51:17.751Z,1.87
2023-04-03T05:53:45.053Z,1.60
2023-04-03T05:56:12.120Z,1.55
2023-04-03T05:58:39.229Z,1.38
2023-04-03T06:01:06.871Z,1.08
2023-04-03T06:03:34.122Z,0.90
2023-04-03T06:06:01.296Z,1.15
2023-04-03T06:08:28.369Z,1.33
2023-04-03T06:10:55.469Z,0.95
2023-04-03T06:13:22.532Z,1.00
2023-04-03T06:15:49.589Z,0.98
2023-04-03T06:18:16.697Z,1.00
2023-04-03T06:20:43.766Z,1.20
2023-04-03T06:23:11.362Z,1.15
2023-04-03T06:25:38.417Z,0.70
2023-04-03T06:28:05.514Z,0.90
2023-04-03T06:30:32.577Z,1.00
2023-04-03T06:33:00.303Z,0.83
2023-04-03T06:35:28.986Z,1.10
2023-04-03T06:37:56.294Z,0.82
2023-04-03T06:40:24.154Z,0.85
2023-04-03T06:42:51.459Z,1.00
2023-04-03T06:45:18.648Z,0.60
2023-04-03T06:47:46.227Z,0.70
2023-04-03T06:50:15.014Z,0.57
2023-04-03T06:52:42.452Z,0.80
2023-04-03T06:55:10.192Z,0.50
2023-04-03T06:57:37.624Z,0.68
2023-04-03T07:00:05.461Z,0.60
2023-04-03T07:02:32.572Z,0.80
2023-04-03T07:04:59.881Z,0.60
2023-04-03T07:07:26.973Z,0.82
2023-04-03T07:09:54.044Z,0.60
2023-04-03T07:12:21.611Z,0.70
2023-04-03T07:14:48.708Z,0.50
2023-04-03T07:17:15.945Z,0.80
2023-04-03T07:19:43.014Z,1.05
2023-04-03T07:22:11.909Z,0.73
2023-04-03T07:24:39.033Z,0.88
2023-04-03T07:27:06.451Z,0.57
2023-04-03T07:29:33.529Z,1.10
2023-04-03T07:32:00.878Z,0.80
2023-04-03T07:34:28.125Z,0.40
2023-04-03T07:36:55.725Z,0.73
2023-04-03T07:39:22.790Z,0.95
2023-04-03T07:41:49.907Z,0.70
2023-04-03T07:44:16.981Z,0.60
2023-04-03T07:46:44.049Z,0.80
2023-04-03T07:49:11.117Z,0.90
2023-04-03T07:51:38.203Z,0.60
2023-04-03T07:54:05.341Z,0.47
2023-04-03T07:56:32.954Z,0.43
2023-04-03T07:59:00.022Z,0.70
2023-04-03T08:01:27.068Z,0.45
2023-04-03T08:03:54.322Z,0.40
2023-04-03T08:06:29.425Z,0.85
2023-04-03T08:09:05.150Z,0.90
2023-04-03T08:11:32.274Z,0.70
2023-04-03T08:13:59.385Z,0.70
2023-04-03T08:16:27.835Z,0.70
2023-04-03T08:18:55.722Z,0.55
2023-04-03T08:21:22.794Z,0.60
2023-04-03T08:23:53.547Z,0.60
2023-04-03T08:26:22.148Z,0.50
2023-04-03T08:28:49.939Z,0.73
2023-04-03T08:31:18.190Z,0.55
2023-04-03T08:33:45.431Z,0.63
2023-04-03T08:36:22.509Z,0.63
2023-04-03T08:38:50.000Z,0.55
2023-04-03T08:41:43.339Z,0.60
2023-04-03T08:44:17.506Z,0.65
2023-04-03T08:46:48.375Z,0.50
2023-04-03T08:49:26.277Z,0.70
2023-04-03T08:51:53.398Z,0.90
2023-04-03T08:54:30.445Z,0.80
2023-04-03T08:56:57.822Z,0.50
2023-04-03T08:59:29.484Z,0.40
2023-04-03T09:01:56.562Z,1.05
2023-04-03T09:04:23.707Z,0.82
2023-04-03T09:06:52.708Z,0.60
2023-04-03T09:09:19.754Z,0.57
2023-04-03T09:11:55.830Z,0.90
2023-04-03T09:14:38.020Z,0.67
2023-04-03T09:17:06.113Z,0.60
2023-04-03T09:19:33.651Z,0.80
2023-04-03T09:22:02.186Z,0.43
2023-04-03T09:24:29.237Z,0.80
2023-04-03T09:27:06.687Z,1.20
2023-04-03T09:29:33.840Z,0.65
2023-04-03T09:32:01.634Z,0.40
2023-04-03T09:34:30.046Z,0.50
2023-04-03T09:36:57.551Z,0.70
2023-04-03T09:39:25.820Z,0.57
2023-04-03T09:41:56.970Z,0.50
2023-04-03T09:44:24.930Z,0.32
2023-04-03T09:46:52.065Z,0.40
2023-04-03T09:49:19.854Z,0.50
2023-04-03T09:51:47.894Z,0.60
2023-04-03T09:54:32.235Z,0.50
2023-04-03T09:56:59.974Z,0.50
2023-04-03T09:59:27.302Z,0.60
2023-04-03T10:01:59.541Z,0.60
2023-04-03T10:04:28.502Z,0.40
2023-04-03T10:06:57.144Z,0.40
2023-04-03T10:09:25.491Z,0.50
2023-04-03T10:12:03.928Z,0.25
2023-04-03T10:14:31.412Z,0.55
2023-04-03T10:17:07.797Z,0.40
2023-04-03T10:19:36.697Z,0.60
2023-04-03T10:22:05.450Z,0.40
2023-04-03T10:24:51.269Z,0.45
2023-04-03T10:27:20.261Z,0.50
2023-04-03T10:30:06.243Z,0.38
2023-04-03T10:32:33.642Z,0.55
2023-04-03T10:35:06.159Z,0.52
2023-04-03T10:37:52.058Z,0.40
2023-04-03T10:40:33.781Z,0.50
2023-04-03T10:43:19.358Z,0.50
2023-04-03T10:45:50.416Z,0.57
2023-04-03T10:48:26.636Z,0.67
2023-04-03T10:51:07.624Z,0.35
2023-04-03T10:53:41.564Z,0.50
2023-04-03T10:56:38.011Z,0.60
2023-04-03T10:59:23.854Z,0.80
2023-04-03T11:01:53.154Z,0.60
2023-04-03T11:04:20.869Z,1.10
2023-04-03T11:06:59.661Z,1.17
2023-04-03T11:09:26.692Z,0.80
2023-04-03T11:11:55.180Z,0.50
2023-04-03T11:14:25.140Z,0.88
2023-04-03T11:16:55.456Z,0.70
2023-04-03T11:19:25.131Z,0.47
2023-04-03T11:22:05.872Z,0.85
2023-04-03T11:24:33.768Z,0.70
2023-04-03T11:27:01.384Z,0.60
2023-04-03T11:32:12.704Z,0.70
2023-04-03T11:34:42.545Z,0.60
2023-04-03T11:37:29.714Z,0.60
2023-04-03T11:39:57.913Z,0.40
2023-04-03T11:42:28.723Z,1.50
2023-04-03T11:45:14.486Z,0.50
2023-04-03T11:47:49.109Z,0.47
2023-04-03T11:50:34.818Z,0.73
2023-04-03T11:53:09.909Z,0.52
2023-04-03T11:55:37.129Z,0.95
2023-04-03T11:58:06.201Z,0.70
2023-04-03T12:00:48.225Z,0.40
2023-04-03T12:03:27.474Z,0.60
2023-04-03T12:05:58.496Z,1.10
2023-04-03T12:08:32.541Z,0.52
2023-04-03T12:11:14.853Z,0.60
2023-04-03T12:13:41.971Z,0.73
2023-04-03T12:16:09.814Z,0.68
2023-04-03T12:18:56.392Z,0.50
2023-04-03T12:21:53.614Z,0.70
2023-04-03T12:24:20.656Z,0.63
2023-04-03T12:26:52.526Z,0.70
2023-04-03T12:29:22.328Z,1.20
2023-04-03T12:32:08.457Z,0.90
2023-04-03T12:34:54.321Z,0.60
2023-04-03T12:37:23.661Z,0.38
2023-04-03T12:39:54.835Z,0.52
2023-04-03T12:42:34.382Z,0.60
2023-04-03T12:45:04.128Z,0.85
2023-04-03T12:47:34.104Z,0.60
2023-04-03T12:50:01.433Z,0.70
2023-04-03T12:52:31.515Z,0.70
2023-04-03T12:54:58.644Z,0.60
2023-04-03T12:57:27.310Z,1.00
2023-04-03T12:59:54.386Z,0.98
2023-04-03T13:02:28.582Z,0.70
2023-04-03T13:04:58.742Z,0.80
2023-04-03T13:07:28.343Z,0.70
2023-04-03T13:10:10.654Z,0.90
2023-04-03T13:12:46.901Z,0.68
2023-04-03T13:15:15.033Z,0.80
2023-04-03T13:17:42.927Z,0.93
2023-04-03T13:20:13.757Z,0.90
2023-04-03T13:22:44.465Z,0.75
2023-04-03T13:25:12.601Z,0.80
2023-04-03T13:27:40.430Z,0.50
2023-04-03T13:30:07.940Z,0.77
2023-04-03T13:32:35.040Z,0.80
2023-04-03T13:35:15.435Z,0.63
2023-04-03T13:37:54.828Z,0.80
2023-04-03T13:40:21.877Z,0.60
2023-04-03T13:42:50.868Z,0.57
2023-04-03T13:45:27.024Z,0.93
2023-04-03T13:47:55.628Z,0.70
2023-04-03T13:50:25.273Z,0.60
2023-04-03T13:53:03.246Z,0.60
2023-04-03T13:55:37.247Z,0.82
2023-04-03T13:58:05.394Z,1.00
2023-04-03T14:00:35.632Z,0.60
2023-04-03T14:03:02.816Z,0.70
2023-04-03T14:05:31.339Z,1.30
2023-04-03T14:07:59.853Z,1.10
2023-04-03T14:10:26.920Z,0.60
2023-04-03T14:12:54.041Z,0.65
2023-04-03T14:15:25.172Z,0.70
2023-04-03T14:17:52.703Z,0.50
2023-04-03T14:20:21.407Z,0.57
2023-04-03T14:22:49.502Z,0.90
2023-04-03T14:25:17.647Z,0.73
2023-04-03T14:27:45.601Z,1.10
2023-04-03T14:30:17.619Z,0.80
2023-04-03T14:32:44.712Z,0.60
2023-04-03T14:35:11.826Z,0.80
2023-04-03T14:37:39.054Z,0.80
2023-04-03T14:40:06.572Z,1.00
2023-04-03T14:42:34.692Z,0.68
2023-04-03T14:45:01.950Z,0.70
2023-04-03T14:47:31.623Z,0.80
2023-04-03T14:49:59.315Z,0.70
2023-04-03T14:52:33.578Z,0.80
2023-04-03T14:55:01.507Z,0.87
2023-04-03T14:57:29.240Z,0.63
2023-04-03T14:59:56.363Z,0.80
2023-04-03T15:02:26.418Z,0.73
2023-04-03T15:04:54.024Z,0.70
2023-04-03T15:07:21.131Z,1.67
2023-04-03T15:09:48.274Z,1.23
2023-04-03T15:12:15.475Z,0.80
2023-04-03T15:14:51.832Z,0.80
2023-04-03T15:17:21.487Z,1.40
2023-04-03T15:19:48.566Z,2.00
2023-04-03T15:22:19.316Z,20.85
2023-04-03T15:24:46.376Z,11.63
2023-04-03T15:27:13.468Z,2.80
2023-04-03T15:29:41.144Z,4.03
2023-04-03T15:32:08.318Z,0.88
2023-04-03T15:34:35.576Z,0.50
2023-04-03T15:37:02.649Z,0.80
2023-04-03T15:39:29.790Z,0.73
2023-04-03T15:42:00.535Z,0.60
2023-04-03T15:44:27.993Z,0.60
2023-04-03T15:46:55.061Z,0.60
2023-04-03T15:49:22.473Z,0.45
2023-04-03T15:51:49.522Z,0.70
2023-04-03T15:54:17.089Z,0.70
2023-04-03T15:56:44.172Z,0.67
2023-04-03T15:59:11.535Z,0.50
2023-04-03T16:01:39.806Z,0.98
2023-04-03T16:04:07.020Z,0.50
2023-04-03T16:06:34.747Z,0.43
2023-04-03T16:09:01.846Z,0.60
2023-04-03T16:11:28.932Z,0.60
2023-04-03T16:13:56.184Z,0.60
2023-04-03T16:16:23.685Z,0.60
2023-04-03T16:18:50.945Z,0.60
2023-04-03T16:21:18.237Z,0.68
2023-04-03T16:23:45.591Z,0.77
2023-04-03T16:26:12.709Z,0.70
2023-04-03T16:28:39.877Z,0.60
2023-04-03T16:31:06.989Z,2.95
2023-04-03T16:33:34.189Z,1.15
2023-04-03T16:36:01.251Z,0.70
2023-04-03T16:38:28.338Z,0.80
2023-04-03T16:40:57.757Z,0.60
2023-04-03T16:43:24.872Z,1.13
2023-04-03T16:45:51.963Z,0.88
2023-04-03T16:48:19.048Z,0.70
2023-04-03T16:50:49.935Z,0.90
2023-04-03T16:53:17.082Z,0.63
2023-04-03T16:55:44.166Z,0.90
2023-04-03T16:58:11.256Z,0.70
2023-04-03T17:00:38.365Z,0.73
2023-04-03T17:03:05.524Z,1.67
2023-04-03T17:05:32.660Z,0.80
2023-04-03T17:08:00.208Z,1.50
2023-04-03T17:10:27.317Z,1.13
2023-04-03T17:12:54.360Z,0.80
2023-04-03T17:15:21.440Z,0.90
2023-04-03T17:17:48.811Z,1.05
2023-04-03T17:20:16.464Z,0.95
2023-04-03T17:22:43.625Z,0.40
2023-04-03T17:25:11.146Z,0.70
2023-04-03T17:27:38.240Z,0.80
2023-04-03T17:30:06.127Z,0.90
2023-04-03T17:32:33.261Z,0.90
2023-04-03T17:35:00.380Z,0.63
2023-04-03T17:37:27.424Z,0.77
2023-04-03T17:39:54.569Z,0.98
2023-04-03T17:42:21.734Z,0.80
2023-04-03T17:44:48.805Z,0.93
2023-04-03T17:47:15.891Z,1.33
2023-04-03T17:49:42.991Z,2.97
2023-04-03T17:52:10.060Z,4.00
2023-04-03T17:54:37.202Z,2.25
2023-04-03T17:57:04.559Z,0.88
2023-04-03T17:59:31.781Z,1.10
2023-04-03T18:01:58.903Z,0.80
2023-04-03T18:04:26.116Z,1.08
2023-04-03T18:06:53.946Z,0.70
2023-04-03T18:09:23.452Z,0.63
2023-04-03T18:11:50.514Z,1.13
2023-04-03T18:14:18.794Z,0.60
2023-04-03T18:16:46.157Z,0.60
2023-04-03T18:22:07.381Z,4.23
2023-04-03T18:24:34.658Z,1.47
2023-04-03T18:27:03.021Z,0.80
2023-04-03T18:29:30.242Z,0.70
2023-04-03T18:31:57.430Z,0.70
2023-04-03T18:34:24.570Z,0.60
2023-04-03T18:36:52.288Z,1.10
2023-04-03T18:39:19.419Z,1.00
2023-04-03T18:41:46.492Z,0.90
2023-04-03T18:44:13.809Z,0.75
2023-04-03T18:46:40.964Z,1.90
2023-04-03T18:49:08.370Z,2.77
2023-04-03T18:51:35.911Z,3.30
2023-04-03T18:54:04.201Z,2.88
2023-04-03T18:56:32.362Z,2.45
2023-04-03T18:58:59.410Z,1.20
2023-04-03T19:01:26.561Z,1.38
2023-04-03T19:03:53.647Z,0.60
2023-04-03T19:06:20.756Z,0.60
2023-04-03T19:08:47.828Z,0.93
2023-04-03T19:11:14.875Z,0.70
2023-04-03T19:13:47.067Z,1.52
2023-04-03T19:16:29.146Z,1.98
2023-04-03T19:18:56.202Z,3.10
2023-04-03T19:21:23.251Z,5.23
2023-04-03T19:23:50.404Z,4.50
2023-04-03T19:26:17.462Z,4.82
2023-04-03T19:28:44.510Z,4.88
2023-04-03T19:31:12.402Z,3.30
2023-04-03T19:33:41.579Z,8.90
2023-04-03T19:36:08.846Z,5.57
2023-04-03T19:38:36.266Z,2.50
2023-04-03T19:41:06.931Z,3.05
2023-04-03T19:43:33.993Z,2.92
2023-04-03T19:46:01.063Z,3.80
2023-04-03T19:48:28.138Z,4.57
2023-04-03T19:50:55.225Z,4.20
2023-04-03T19:53:24.407Z,2.90
2023-04-03T19:55:51.486Z,2.50
2023-04-03T19:58:18.577Z,4.70
2023-04-03T20:00:45.711Z,6.18
2023-04-03T20:03:12.786Z,5.60
2023-04-03T20:05:39.849Z,5.05
2023-04-03T20:08:06.909Z,5.75
2023-04-03T20:10:35.382Z,4.93
2023-04-03T20:13:04.084Z,4.70
2023-04-03T20:15:40.091Z,2.78
2023-04-03T20:18:08.147Z,1.60
2023-04-03T20:20:41.615Z,1.40
2023-04-03T20:23:10.666Z,1.80
2023-04-03T20:25:50.725Z,1.83
2023-04-03T20:28:25.058Z,1.90
2023-04-03T20:30:54.328Z,2.00
2023-04-03T20:33:22.058Z,1.30
2023-04-03T20:35:49.298Z,1.55
2023-04-03T20:38:16.544Z,1.58
2023-04-03T20:40:43.717Z,1.20
2023-04-03T20:43:11.190Z,1.23
2023-04-03T20:45:38.274Z,1.45
2023-04-03T20:48:05.831Z,1.13
2023-04-03T20:50:33.841Z,1.83
2023-04-03T20:53:01.853Z,1.20
2023-04-03T20:55:29.013Z,1.40
2023-04-03T20:58:00.858Z,1.42
2023-04-03T21:00:28.673Z,1.30
2023-04-03T21:02:57.046Z,1.50
2023-04-03T21:05:26.214Z,1.35
2023-04-03T21:08:12.003Z,1.45
2023-04-03T21:10:59.036Z,1.40
2023-04-03T21:13:46.420Z,0.88
2023-04-03T21:16:13.595Z,1.10
2023-04-03T21:18:51.293Z,2.00
2023-04-03T21:21:23.159Z,1.55
2023-04-03T21:23:50.371Z,1.90
2023-04-03T21:26:17.556Z,2.13
2023-04-03T21:28:44.638Z,2.20
2023-04-03T21:31:11.819Z,2.00
2023-04-03T21:33:39.595Z,2.15
2023-04-03T21:36:07.539Z,2.45
2023-04-03T21:38:35.632Z,2.85
2023-04-03T21:41:02.944Z,2.40
2023-04-03T21:43:30.087Z,2.60
2023-04-03T21:45:57.648Z,3.00
2023-04-03T21:48:25.311Z,3.03
2023-04-03T21:50:53.564Z,3.80
2023-04-03T21:53:22.396Z,3.28
2023-04-03T21:55:57.143Z,3.50
2023-04-03T21:58:33.838Z,3.75
2023-04-03T22:01:10.603Z,3.80
2023-04-03T22:03:41.316Z,3.72
2023-04-03T22:06:08.848Z,3.25
2023-04-03T22:08:36.331Z,3.47
2023-04-03T22:11:07.203Z,3.75
2023-04-03T22:13:34.476Z,3.53
2023-04-03T22:16:02.456Z,3.05
2023-04-03T22:18:29.951Z,3.53
2023-04-03T22:20:57.285Z,2.80
2023-04-03T22:23:24.612Z,2.90
2023-04-03T22:26:01.890Z,2.53
2023-04-03T22:28:29.453Z,3.40
2023-04-03T22:30:57.058Z,2.97
2023-04-03T22:33:24.348Z,3.30
2023-04-03T22:35:51.569Z,2.92
2023-04-03T22:38:18.844Z,3.60
2023-04-03T22:40:46.180Z,3.80
2023-04-03T22:43:13.276Z,3.42
2023-04-03T22:45:50.170Z,3.13
2023-04-03T22:48:17.645Z,3.63
2023-04-03T22:50:44.834Z,3.50
2023-04-03T22:53:11.990Z,4.10
2023-04-03T22:55:39.042Z,3.92
2023-04-03T22:58:06.575Z,3.33
2023-04-03T23:00:33.712Z,3.78
2023-04-03T23:03:04.441Z,2.95
2023-04-03T23:05:31.640Z,2.40
2023-04-03T23:07:58.725Z,2.88
2023-04-03T23:10:25.798Z,3.20
2023-04-03T23:12:52.905Z,2.80
2023-04-03T23:15:19.989Z,3.93
2023-04-03T23:17:49.135Z,3.07
2023-04-03T23:20:16.579Z,3.80
2023-04-03T23:22:44.420Z,3.28
2023-04-03T23:25:11.487Z,3.43
2023-04-03T23:27:38.550Z,3.63
2023-04-03T23:30:06.433Z,3.47
2023-04-03T23:32:33.592Z,3.17
2023-04-03T23:35:00.777Z,3.53
2023-04-03T23:37:27.915Z,3.78
2023-04-03T23:39:55.013Z,3.70
2023-04-03T23:42:22.146Z,3.60
2023-04-03T23:44:49.304Z,3.50
2023-04-03T23:47:17.052Z,2.72
2023-04-03T23:49:44.150Z,2.73
2023-04-03T23:52:11.388Z,2.60
2023-04-03T23:54:38.820Z,2.07
2023-04-03T23:57:06.166Z,1.88
2023-04-03T23:59:33.342Z,1.88
